Time;durP1;ratioP1;P1;durP2;ratioP2;P2;SDS_P1;SDS_P2;PMS_P1;PMS_P2;Temp;Humidity;BMP_temperature;BMP_pressure;BME280_temperature;BME280_humidity;BME280_pressure;Samples;Min_cycle;Max_cycle;Signal;HPM_P1;HPM_P2
2021/12/13 00:01:34;;;;;;;13.43;9.75;;;;;;;7.76;100.00;101506.63;5047583;28;20059;-58
2021/12/13 00:04:05;;;;;;;14.85;10.90;;;;;;;7.76;100.00;101517.09;5046717;28;20086;-58
2021/12/13 00:06:52;;;;;;;13.88;10.77;;;;;;;7.77;100.00;101510.97;5048021;28;20039;-57
2021/12/13 00:09:22;;;;;;;16.55;10.65;;;;;;;7.76;100.00;101517.09;5048028;28;20493;-58
2021/12/13 00:11:54;;;;;;;11.60;9.88;;;;;;;7.73;100.00;101511.91;5029983;28;20060;-58
2021/12/13 00:14:29;;;;;;;11.48;10.20;;;;;;;7.73;100.00;101514.53;5048124;28;20085;-58
2021/12/13 00:17:23;;;;;;;14.95;11.52;;;;;;;7.73;100.00;101517.16;5048042;28;20032;-58
2021/12/13 00:19:52;;;;;;;13.48;10.30;;;;;;;7.77;100.00;101526.66;5042747;28;20036;-58
2021/12/13 00:22:25;;;;;;;12.23;9.60;;;;;;;7.76;100.00;101517.09;5046911;28;20024;-57
2021/12/13 00:24:51;;;;;;;16.60;10.23;;;;;;;7.76;100.00;101514.47;5047741;28;20035;-58
2021/12/13 00:27:27;;;;;;;14.88;11.63;;;;;;;7.80;100.00;101525.72;5046722;28;20102;-57
2021/12/13 00:30:00;;;;;;;14.48;11.32;;;;;;;7.79;100.00;101522.25;5047079;28;20028;-58
2021/12/13 00:32:47;;;;;;;14.35;10.65;;;;;;;7.81;100.00;101523.06;5047661;28;20078;-57
2021/12/13 00:35:20;;;;;;;15.27;11.48;;;;;;;7.82;100.00;101524.81;5046320;28;20036;-58
2021/12/13 00:37:52;;;;;;;15.55;10.93;;;;;;;7.53;100.00;101467.00;5048727;28;20777;-58
2021/12/13 00:40:26;;;;;;;17.60;11.23;;;;;;;7.79;100.00;101521.38;5047645;28;20129;-58
2021/12/13 00:42:54;;;;;;;13.38;11.20;;;;;;;7.80;100.00;101533.59;5047117;28;20075;-58
2021/12/13 00:45:22;;;;;;;14.20;11.52;;;;;;;7.78;100.00;101520.53;5047182;28;20229;-58
2021/12/13 00:47:47;;;;;;;15.93;10.98;;;;;;;7.81;100.00;101517.84;5047511;28;20020;-58
2021/12/13 00:50:16;;;;;;;12.32;11.02;;;;;;;7.83;100.00;101523.06;5046391;28;20901;-58
2021/12/13 00:52:43;;;;;;;14.73;10.88;;;;;;;7.84;100.00;101524.78;5047463;28;20030;-58
2021/12/13 00:55:16;;;;;;;15.93;10.77;;;;;;;7.81;100.00;101525.69;5048424;28;20964;-58
2021/12/13 00:57:44;;;;;;;13.35;10.63;;;;;;;7.81;100.00;101520.44;5046512;28;20028;-58
2021/12/13 01:00:29;;;;;;;15.02;9.82;;;;;;;7.82;100.00;101521.31;5047058;28;20152;-58
2021/12/13 01:02:59;;;;;;;12.55;10.95;;;;;;;7.82;100.00;101522.19;5049012;28;20024;-58
2021/12/13 01:05:54;;;;;;;15.73;11.20;;;;;;;7.83;100.00;101523.91;5047329;28;20047;-58
2021/12/13 01:08:31;;;;;;;15.25;11.27;;;;;;;7.81;100.00;101528.31;5027875;28;20875;-58
2021/12/13 01:11:37;;;;;;;16.35;10.07;;;;;;;7.81;100.00;101525.69;5047097;28;20034;-58
2021/12/13 01:14:14;;;;;;;13.38;10.45;;;;;;;7.82;100.00;101532.66;5046811;28;20059;-58
2021/12/13 01:17:00;;;;;;;15.50;10.90;;;;;;;7.78;100.00;101520.53;5046814;28;20093;-58
2021/12/13 01:19:47;;;;;;;13.40;9.40;;;;;;;7.78;100.00;101525.75;5046560;28;20034;-58
2021/12/13 01:27:44;;;;;;;13.45;10.05;;;;;;;7.74;100.00;101529.31;5047370;28;20036;-58
2021/12/13 01:30:13;;;;;;;19.05;10.77;;;;;;;7.73;100.00;101527.63;5047203;28;20020;-58
2021/12/13 01:32:42;;;;;;;14.25;11.48;;;;;;;7.78;100.00;101536.22;5045419;28;20042;-58
2021/12/13 01:35:12;;;;;;;14.07;10.13;;;;;;;7.78;100.00;101540.59;5047043;28;20024;-58
2021/12/13 01:37:38;;;;;;;12.15;9.98;;;;;;;7.80;100.00;101538.81;5028536;28;20040;-58
2021/12/13 01:40:11;;;;;;;15.23;11.32;;;;;;;7.80;100.00;101549.28;5028899;28;20121;-58
2021/12/13 01:42:37;;;;;;;16.83;11.05;;;;;;;7.80;100.00;101550.16;5051122;28;20082;-58
2021/12/13 01:45:10;;;;;;;15.18;10.18;;;;;;;7.80;100.00;101549.28;5050672;28;20838;-58
2021/12/13 01:47:40;;;;;;;14.68;10.68;;;;;;;7.81;100.00;101554.47;5050505;28;20032;-58
2021/12/13 01:50:19;;;;;;;12.50;9.85;;;;;;;7.84;100.00;101557.00;5051474;28;20198;-58
2021/12/13 01:52:47;;;;;;;20.63;11.80;;;;;;;7.84;100.00;101556.19;5050479;28;20039;-58
2021/12/13 01:55:24;;;;;;;16.42;11.63;;;;;;;7.81;100.00;101551.84;5051103;28;20035;-58
2021/12/13 01:57:56;;;;;;;14.55;10.52;;;;;;;7.85;100.00;101557.88;5048943;28;20093;-58
2021/12/13 02:01:08;;;;;;;14.27;11.32;;;;;;;7.84;100.00;101559.63;5048087;28;20993;-58
2021/12/13 02:03:19;;;;;;;14.82;10.93;;;;;;;7.84;100.00;101559.63;5050200;28;20846;-58
2021/12/13 02:05:47;;;;;;;15.15;10.20;;;;;;;7.82;100.00;101550.97;5032592;28;20955;-58
2021/12/13 02:08:15;;;;;;;13.48;10.63;;;;;;;7.65;100.00;101521.66;5050224;28;20024;-58
2021/12/13 02:10:48;;;;;;;18.05;10.55;;;;;;;7.84;100.00;101569.25;5050422;28;20024;-58
2021/12/13 02:13:37;;;;;;;17.85;10.40;;;;;;;7.84;100.00;101559.63;5050736;28;20037;-57
2021/12/13 02:18:51;;;;;;;11.23;9.20;;;;;;;7.84;100.00;101548.34;5049641;28;20121;-58
2021/12/13 02:21:25;;;;;;;13.68;10.00;;;;;;;7.82;100.00;101542.25;5032011;28;20036;-58
2021/12/13 02:23:55;;;;;;;13.27;9.95;;;;;;;7.82;100.00;101545.72;5049994;28;20097;-58
2021/12/13 02:26:20;;;;;;;13.73;10.07;;;;;;;7.80;100.00;101544.06;5050224;28;20032;-57
2021/12/13 02:28:49;;;;;;;11.85;10.25;;;;;;;7.81;100.00;101548.41;5049583;28;20954;-58
2021/12/13 02:31:21;;;;;;;12.32;9.77;;;;;;;7.81;100.00;101543.16;5048617;28;20130;-58
2021/12/13 02:33:59;;;;;;;12.73;10.18;;;;;;;7.81;100.00;101545.78;5049620;28;20040;-58
2021/12/13 02:36:29;;;;;;;12.23;9.25;;;;;;;7.80;100.00;101542.31;5050708;28;20027;-57
2021/12/13 02:38:58;;;;;;;15.82;10.02;;;;;;;7.77;100.00;101551.97;5050423;28;20095;-57
2021/12/13 02:41:28;;;;;;;9.32;8.00;;;;;;;7.77;100.00;101550.22;5050578;28;20024;-57
2021/12/13 02:43:58;;;;;;;12.70;9.55;;;;;;;7.77;100.00;101552.84;5048862;28;20214;-57
2021/12/13 02:46:24;;;;;;;11.02;8.23;;;;;;;7.68;100.00;101540.78;5048491;28;20074;-56
2021/12/13 02:48:54;;;;;;;11.82;9.18;;;;;;;7.74;100.00;101563.31;5047979;28;20035;-57
2021/12/13 02:51:39;;;;;;;11.75;8.70;;;;;;;7.76;100.00;101560.69;5049010;28;20139;-56
2021/12/13 02:54:08;;;;;;;11.15;8.25;;;;;;;7.74;100.00;101563.31;5049656;28;20028;-57
2021/12/13 02:56:58;;;;;;;15.18;9.80;;;;;;;7.76;100.00;101564.19;5048104;28;20907;-56
2021/12/13 02:59:26;;;;;;;13.48;9.48;;;;;;;7.74;100.00;101563.31;5050260;28;20032;-57
2021/12/13 03:01:58;;;;;;;12.63;9.27;;;;;;;7.74;100.00;101563.31;5048184;28;20028;-57
2021/12/13 03:04:26;;;;;;;11.18;8.18;;;;;;;7.70;100.00;101559.06;5031857;28;20123;-57
2021/12/13 03:07:04;;;;;;;10.50;8.63;;;;;;;7.71;100.00;101560.78;5049011;28;20089;-57
2021/12/13 03:09:32;;;;;;;13.25;8.30;;;;;;;7.48;100.00;101526.38;5048730;28;20083;-57
2021/12/13 03:12:00;;;;;;;10.70;8.45;;;;;;;7.69;100.00;101562.56;5050196;28;20145;-57
2021/12/13 03:14:35;;;;;;;11.90;8.40;;;;;;;7.67;100.00;101549.50;5049486;28;20088;-57
2021/12/13 03:17:08;;;;;;;12.73;8.77;;;;;;;7.66;100.00;101552.19;5054307;28;20136;-58
2021/12/13 03:19:42;;;;;;;13.02;8.32;;;;;;;7.66;100.00;101558.28;5047655;28;20035;-57
2021/12/13 03:22:46;;;;;;;11.73;9.10;;;;;;;7.68;100.00;101558.22;5049181;28;20100;-57
2021/12/13 03:25:22;;;;;;;8.57;7.65;;;;;;;7.68;100.00;101550.38;5030752;28;20031;-57
2021/12/13 03:28:06;;;;;;;11.57;8.70;;;;;;;7.65;100.00;101553.91;5029709;28;20851;-57
2021/12/13 03:30:54;;;;;;;12.15;8.93;;;;;;;7.63;100.00;101567.94;5050026;28;20093;-57
2021/12/13 03:33:25;;;;;;;10.15;8.13;;;;;;;7.29;100.00;101510.19;5034861;28;20044;-57
2021/12/13 03:35:55;;;;;;;15.63;9.13;;;;;;;7.58;100.00;101564.53;5048936;28;20063;-57
2021/12/13 03:38:31;;;;;;;9.77;7.82;;;;;;;7.59;100.00;101571.50;5047796;28;20042;-57
2021/12/13 03:40:59;;;;;;;10.75;8.50;;;;;;;7.59;100.00;101571.50;5048723;28;20036;-57
2021/12/13 03:43:35;;;;;;;12.00;8.98;;;;;;;7.59;100.00;101568.88;5047695;28;20185;-57
2021/12/13 03:46:05;;;;;;;10.05;8.38;;;;;;;7.58;100.00;101570.63;5048620;28;20043;-57
2021/12/13 03:48:31;;;;;;;12.73;9.23;;;;;;;7.59;100.00;101577.59;5046956;28;20125;-57
2021/12/13 03:51:00;;;;;;;13.45;8.38;;;;;;;7.61;100.00;101569.69;5048446;28;20035;-57
2021/12/13 03:53:28;;;;;;;11.48;8.50;;;;;;;7.51;100.00;101552.44;5030329;28;20024;-57
2021/12/13 03:56:02;;;;;;;10.98;8.07;;;;;;;7.62;100.00;101576.66;5048602;28;20060;-57
2021/12/13 03:58:30;;;;;;;10.88;8.13;;;;;;;7.52;100.00;101564.66;5029374;28;20953;-57
2021/12/13 04:01:00;;;;;;;11.02;7.80;;;;;;;7.62;100.00;101577.53;5048062;28;20129;-57
2021/12/13 04:03:27;;;;;;;14.27;7.30;;;;;;;7.61;100.00;101585.38;5047656;28;20825;-57
2021/12/13 04:05:54;;;;;;;11.10;7.95;;;;;;;7.59;100.00;101579.34;5047075;28;20065;-57
2021/12/13 04:08:20;;;;;;;9.45;7.72;;;;;;;7.62;100.00;101581.88;5048459;28;20071;-57
2021/12/13 04:10:51;;;;;;;12.70;8.05;;;;;;;7.64;100.00;101585.31;5047657;28;20024;-58
2021/12/13 04:13:19;;;;;;;10.15;7.80;;;;;;;7.50;100.00;101562.03;5048334;28;20131;-57
2021/12/13 04:16:30;;;;;;;9.82;7.28;;;;;;;7.62;100.00;101576.66;5046512;28;20039;-57
2021/12/13 04:21:23;;;;;;;10.68;7.97;;;;;;;7.65;100.00;101576.59;5046445;28;20039;-57
2021/12/13 04:23:52;;;;;;;11.05;7.72;;;;;;;7.63;100.00;101581.00;5046347;28;20032;-57
2021/12/13 04:26:17;;;;;;;10.90;7.32;;;;;;;7.64;100.00;101569.63;5046303;28;20093;-57
2021/12/13 04:28:46;;;;;;;7.55;6.03;;;;;;;7.62;100.00;101576.66;5047746;28;20024;-57
2021/12/13 04:31:16;;;;;;;11.73;7.80;;;;;;;7.65;100.00;101587.06;5047360;28;20164;-57
2021/12/13 04:33:46;;;;;;;9.70;6.88;;;;;;;7.65;100.00;101582.69;5047406;28;20032;-57
2021/12/13 04:36:14;;;;;;;12.45;6.65;;;;;;;7.67;100.00;101586.13;5046324;28;20039;-58
2021/12/13 04:38:51;;;;;;;9.07;6.22;;;;;;;7.68;100.00;101584.38;5046056;28;20093;-57
2021/12/13 04:41:34;;;;;;;9.95;6.93;;;;;;;7.66;100.00;101587.03;5047792;28;20032;-57
2021/12/13 04:44:26;;;;;;;8.23;6.05;;;;;;;7.67;100.00;101580.06;5047731;28;20477;-57
2021/12/13 04:46:53;;;;;;;8.98;7.03;;;;;;;7.66;100.00;101578.34;5047165;28;20067;-57
2021/12/13 04:49:21;;;;;;;9.57;7.00;;;;;;;7.67;100.00;101573.06;5047586;28;20032;-57
2021/12/13 04:51:52;;;;;;;13.88;6.20;;;;;;;7.66;100.00;101578.34;5047148;28;20028;-57
2021/12/13 04:54:18;;;;;;;9.23;6.97;;;;;;;7.40;100.00;101541.34;5047818;28;20892;-57
2021/12/13 04:56:46;;;;;;;13.75;6.10;;;;;;;7.43;100.00;101549.13;5047991;28;20028;-57
2021/12/13 04:59:13;;;;;;;10.63;6.65;;;;;;;7.67;100.00;101585.28;5046178;28;20032;-57
2021/12/13 05:01:40;;;;;;;9.40;6.07;;;;;;;7.57;100.00;101578.50;5045652;28;20292;-57
2021/12/13 05:04:08;;;;;;;8.43;5.78;;;;;;;7.68;100.00;101592.22;5047320;28;20866;-57
2021/12/13 05:06:38;;;;;;;7.38;5.30;;;;;;;7.67;100.00;101596.59;5047135;28;20033;-57
2021/12/13 05:09:07;;;;;;;6.72;5.70;;;;;;;7.68;100.00;101600.06;5045682;28;20032;-57
2021/12/13 05:11:39;;;;;;;8.13;5.82;;;;;;;7.68;100.00;101600.06;5047104;28;20024;-57
2021/12/13 05:14:05;;;;;;;7.82;5.35;;;;;;;7.69;100.00;101599.19;5046916;28;20857;-57
2021/12/13 05:16:50;;;;;;;6.90;5.57;;;;;;;7.68;100.00;101597.47;5045263;28;20885;-57
2021/12/13 05:19:28;;;;;;;6.88;5.10;;;;;;;7.71;100.00;101593.03;5045588;28;20948;-57
2021/12/13 05:21:55;;;;;;;7.03;5.32;;;;;;;7.70;100.00;101595.69;5047109;28;20151;-58
2021/12/13 05:24:28;;;;;;;6.53;4.88;;;;;;;7.71;100.00;101592.16;5047111;28;20032;-57
2021/12/13 05:26:58;;;;;;;7.00;5.90;;;;;;;7.73;100.00;101587.78;5046796;28;20032;-57
2021/12/13 05:29:31;;;;;;;8.10;6.13;;;;;;;7.74;100.00;101586.88;5046997;28;20094;-57
2021/12/13 05:32:02;;;;;;;9.73;5.53;;;;;;;7.73;100.00;101593.00;5046599;28;20024;-57
2021/12/13 05:34:34;;;;;;;6.72;4.68;;;;;;;7.70;100.00;101587.84;5047906;28;20028;-57
2021/12/13 05:37:02;;;;;;;5.55;4.25;;;;;;;7.69;100.00;101599.19;5045835;28;20043;-57
2021/12/13 05:39:28;;;;;;;9.77;5.28;;;;;;;7.68;100.00;101597.47;5047035;28;20081;-57
2021/12/13 05:41:57;;;;;;;8.07;5.05;;;;;;;7.68;100.00;101602.69;5027265;28;21043;-57
2021/12/13 05:44:29;;;;;;;7.93;5.13;;;;;;;7.68;100.00;101602.69;5027458;28;20056;-57
2021/12/13 05:46:56;;;;;;;6.30;4.90;;;;;;;7.69;100.00;101594.84;5046824;28;20296;-57
2021/12/13 05:49:23;;;;;;;6.38;5.03;;;;;;;7.71;100.00;101607.84;5046528;28;20032;-57
2021/12/13 05:51:53;;;;;;;7.00;4.40;;;;;;;7.69;100.00;101605.28;5045039;28;20028;-57
2021/12/13 05:54:32;;;;;;;8.40;5.35;;;;;;;7.69;100.00;101604.44;5046720;28;20032;-57
2021/12/13 05:57:04;;;;;;;6.97;4.60;;;;;;;7.67;100.00;101608.84;5046572;28;20032;-57
2021/12/13 05:59:37;;;;;;;7.72;5.40;;;;;;;7.63;100.00;101594.94;5047448;28;20036;-57
2021/12/13 06:02:13;;;;;;;6.43;4.22;;;;;;;7.66;100.00;101607.09;5027349;28;20016;-57
2021/12/13 06:05:09;;;;;;;6.88;4.88;;;;;;;7.51;100.00;101589.06;5047066;28;20035;-57
2021/12/13 06:07:40;;;;;;;6.28;4.40;;;;;;;7.62;100.00;101602.81;5027307;28;20032;-57
2021/12/13 06:10:11;;;;;;;7.05;5.00;;;;;;;7.65;100.00;101601.00;5046522;28;20027;-57
2021/12/13 06:12:57;;;;;;;6.85;4.63;;;;;;;7.64;100.00;101601.03;5046238;28;20039;-57
2021/12/13 06:15:32;;;;;;;6.00;4.88;;;;;;;7.62;100.00;101597.59;5046319;28;20039;-57
2021/12/13 06:18:03;;;;;;;7.65;4.70;;;;;;;7.63;100.00;101599.31;5046757;28;20043;-57
2021/12/13 06:20:32;;;;;;;6.30;4.63;;;;;;;7.62;100.00;101602.81;5046356;28;20032;-57
2021/12/13 06:23:11;;;;;;;6.40;4.10;;;;;;;7.61;100.00;101601.94;5046292;28;20028;-57
2021/12/13 06:25:39;;;;;;;6.38;4.43;;;;;;;7.61;100.00;101608.94;5045028;28;21067;-57
2021/12/13 06:28:06;;;;;;;5.95;4.47;;;;;;;7.62;100.00;101602.81;5050285;28;20038;-57
2021/12/13 06:30:38;;;;;;;6.47;4.78;;;;;;;7.61;100.00;101607.19;5049841;28;20024;-57
2021/12/13 06:33:13;;;;;;;5.45;4.60;;;;;;;7.60;100.00;101600.22;5051033;28;20085;-57
2021/12/13 06:36:01;;;;;;;5.55;4.13;;;;;;;7.62;100.00;101597.59;5049211;28;20028;-57
2021/12/13 06:38:34;;;;;;;8.57;5.53;;;;;;;7.63;100.00;101602.81;5049910;28;20035;-57
2021/12/13 06:41:20;;;;;;;6.40;4.38;;;;;;;7.64;100.00;101611.47;5049130;28;20083;-56
2021/12/13 06:43:51;;;;;;;6.53;5.05;;;;;;;7.63;100.00;101612.41;5049018;28;20040;-56
2021/12/13 06:46:23;;;;;;;7.00;5.10;;;;;;;7.61;100.00;101614.16;5049708;28;20878;-57
2021/12/13 06:48:58;;;;;;;7.55;5.40;;;;;;;7.62;100.00;101619.38;5049466;28;20052;-56
2021/12/13 06:52:08;;;;;;;6.82;5.28;;;;;;;7.61;100.00;101616.78;5048589;28;20896;-56
2021/12/13 06:54:40;;;;;;;13.88;6.00;;;;;;;7.62;100.00;101621.13;5038594;28;20043;-56
2021/12/13 06:57:10;;;;;;;8.45;5.38;;;;;;;7.62;100.00;101618.50;5061238;28;20027;-56
2021/12/13 07:00:14;;;;;;;13.52;5.85;;;;;;;7.63;100.00;101622.84;5061539;28;20093;-56
2021/12/13 07:02:42;;;;;;;6.18;5.07;;;;;;;7.63;100.00;101615.00;4996068;28;20037;-56
2021/12/13 07:05:10;;;;;;;9.93;5.25;;;;;;;7.61;100.00;101616.78;5004543;28;20032;-56
2021/12/13 07:07:39;;;;;;;9.43;6.05;;;;;;;7.45;100.00;101597.91;5036554;28;20047;-57
2021/12/13 07:10:10;;;;;;;8.48;6.00;;;;;;;7.62;100.00;101631.59;5051725;28;20861;-57
2021/12/13 07:12:44;;;;;;;8.10;5.80;;;;;;;7.62;100.00;101629.84;5066276;28;20596;-56
2021/12/13 07:15:29;;;;;;;9.70;5.60;;;;;;;7.44;100.00;101603.13;5068059;28;20032;-56
2021/12/13 07:18:09;;;;;;;8.23;5.88;;;;;;;7.62;100.00;101632.44;5066775;28;20028;-57
2021/12/13 07:20:44;;;;;;;6.82;5.53;;;;;;;7.61;100.00;101622.00;5066990;28;20050;-56
2021/12/13 07:23:10;;;;;;;9.65;6.18;;;;;;;7.63;100.00;101635.94;5069325;28;21047;-56
2021/12/13 07:25:38;;;;;;;8.45;6.05;;;;;;;7.64;100.00;101643.75;5068512;28;20031;-57
2021/12/13 07:28:05;;;;;;;10.23;7.72;;;;;;;7.65;100.00;101634.16;5068545;28;20031;-56
2021/12/13 07:30:31;;;;;;;9.82;6.57;;;;;;;7.65;100.00;101644.59;5067122;28;20892;-56
2021/12/13 07:33:12;;;;;;;7.88;5.72;;;;;;;7.63;100.00;101646.41;5068402;28;20122;-56
2021/12/13 07:35:42;;;;;;;6.50;5.05;;;;;;;7.62;100.00;101642.03;5067878;28;20104;-57
2021/12/13 07:38:16;;;;;;;9.05;5.93;;;;;;;7.59;100.00;101644.72;5067205;28;20126;-57
2021/12/13 07:40:44;;;;;;;6.45;5.22;;;;;;;7.58;100.00;101641.25;5070583;28;20031;-56
2021/12/13 07:43:14;;;;;;;7.65;5.55;;;;;;;7.60;100.00;101646.44;5072461;28;20857;-56
2021/12/13 07:45:45;;;;;;;8.77;5.05;;;;;;;7.60;100.00;101646.44;5071589;28;20035;-57
2021/12/13 07:48:25;;;;;;;11.02;6.68;;;;;;;7.60;100.00;101643.84;5069283;28;20043;-56
2021/12/13 07:50:59;;;;;;;7.47;5.28;;;;;;;7.59;100.00;101648.19;5069520;28;20833;-56
2021/12/13 07:53:26;;;;;;;7.70;5.40;;;;;;;7.62;100.00;101655.13;5068325;28;20136;-56
2021/12/13 07:55:52;;;;;;;8.25;5.88;;;;;;;7.52;100.00;101641.34;5068209;28;20027;-56
2021/12/13 07:58:33;;;;;;;7.75;5.50;;;;;;;7.63;100.00;101662.09;5065225;28;20086;-56
2021/12/13 08:01:12;;;;;;;7.78;5.40;;;;;;;7.54;100.00;101651.78;5066526;28;20512;-56
2021/12/13 08:03:46;;;;;;;8.30;5.25;;;;;;;7.68;100.00;101668.09;5068865;28;20092;-56
2021/12/13 08:06:12;;;;;;;8.07;5.53;;;;;;;7.56;100.00;101656.09;5070932;28;20108;-56
2021/12/13 08:08:51;;;;;;;7.43;4.75;;;;;;;7.69;100.00;101677.66;5070998;28;20055;-57
2021/12/13 08:11:18;;;;;;;10.38;4.90;;;;;;;7.73;100.00;101674.13;5069808;28;20027;-56
2021/12/13 08:13:54;;;;;;;9.88;5.70;;;;;;;7.77;100.00;101678.41;5068820;28;20545;-56
2021/12/13 08:16:48;;;;;;;8.88;4.97;;;;;;;7.80;100.00;101680.97;5070346;28;20145;-56
2021/12/13 08:19:18;;;;;;;7.35;5.07;;;;;;;7.82;100.00;101684.41;5070660;28;20925;-56
2021/12/13 08:21:49;;;;;;;6.38;5.00;;;;;;;7.84;100.00;101677.38;5069674;28;20032;-56
2021/12/13 08:24:23;;;;;;;10.23;5.45;;;;;;;7.56;100.00;101631.69;5050963;28;20896;-56
2021/12/13 08:26:55;;;;;;;8.82;5.18;;;;;;;7.92;100.00;101680.72;5070191;28;20327;-56
2021/12/13 08:29:27;;;;;;;6.72;4.72;;;;;;;7.97;100.00;101678.91;5069877;28;20959;-56
2021/12/13 08:31:56;;;;;;;6.32;4.65;;;;;;;8.01;100.00;101677.09;5069158;28;20047;-57
2021/12/13 08:34:28;;;;;;;5.72;4.43;;;;;;;8.03;100.00;101680.53;5051642;28;20088;-56
2021/12/13 08:36:54;;;;;;;6.68;4.22;;;;;;;8.02;100.00;101677.03;5069137;28;20134;-57
2021/12/13 08:39:32;;;;;;;5.72;4.35;;;;;;;8.04;100.00;101677.88;5069895;28;20094;-56
2021/12/13 08:42:09;;;;;;;7.30;4.40;;;;;;;8.04;100.00;101679.66;5069917;28;20036;-57
2021/12/13 08:44:39;;;;;;;7.18;4.05;;;;;;;8.04;100.00;101685.72;5067677;28;20429;-56
2021/12/13 08:47:21;;;;;;;10.02;4.07;;;;;;;8.04;100.00;101685.72;5068667;28;20027;-57
2021/12/13 08:50:04;;;;;;;6.10;3.83;;;;;;;8.03;100.00;101686.63;5069190;28;20031;-57
2021/12/13 08:52:36;;;;;;;5.10;3.30;;;;;;;8.03;100.00;101684.00;5069707;28;20035;-56
2021/12/13 08:55:10;;;;;;;7.63;3.47;;;;;;;8.04;100.00;101682.25;5069057;28;20031;-57
2021/12/13 08:57:42;;;;;;;4.32;3.33;;;;;;;8.04;100.00;101675.25;5066536;28;20034;-56
2021/12/13 09:00:07;;;;;;;10.85;3.38;;;;;;;8.07;100.00;101680.44;5067260;28;20031;-57
2021/12/13 09:02:37;;;;;;;6.50;3.75;;;;;;;8.06;100.00;101676.09;5065767;28;20173;-56
2021/12/13 09:05:50;;;;;;;4.65;2.55;;;;;;;8.08;100.00;101674.31;5055001;28;20135;-56
2021/12/13 09:08:16;;;;;;;4.75;2.78;;;;;;;8.12;100.00;101683.81;5035687;28;20037;-57
2021/12/13 09:10:45;;;;;;;3.72;2.60;;;;;;;8.17;100.00;101676.75;5028162;28;20036;-57
2021/12/13 09:13:12;;;;;;;4.85;2.40;;;;;;;8.22;100.00;101690.59;5063203;28;20028;-57
2021/12/13 09:15:37;;;;;;;5.05;2.63;;;;;;;7.88;100.00;101620.63;5062736;28;20024;-57
2021/12/13 09:18:06;;;;;;;5.60;2.00;;;;;;;8.26;100.00;101686.16;5057803;28;20078;-57
2021/12/13 09:20:45;;;;;;;4.05;2.30;;;;;;;8.06;100.00;101657.78;5045492;28;20059;-57
2021/12/13 09:23:21;;;;;;;4.80;2.78;;;;;;;8.28;100.00;101694.00;5045746;28;20035;-57
2021/12/13 09:25:53;;;;;;;4.18;2.33;;;;;;;8.26;100.00;101685.31;5045060;28;20043;-57
2021/12/13 09:28:29;;;;;;;6.57;3.22;;;;;;;8.23;100.00;101694.97;5045941;28;20032;-57
2021/12/13 09:31:01;;;;;;;3.70;2.25;;;;;;;8.22;100.00;101698.47;5048251;28;20020;-57
2021/12/13 09:33:31;;;;;;;5.25;2.38;;;;;;;8.21;100.00;101698.50;5059105;28;20134;-57
2021/12/13 09:36:07;;;;;;;4.78;2.10;;;;;;;8.20;100.00;101705.50;5065296;28;20319;-57
2021/12/13 09:38:41;;;;;;;4.03;1.45;;;;;;;8.19;100.00;101706.38;5065362;28;20031;-58
2021/12/13 09:41:15;;;;;;;;;;;;;;;8.19;100.00;101711.63;5065940;28;20036;-57
2021/12/13 09:43:49;;;;;;;6.72;2.28;;;;;;;8.18;100.00;101709.88;5066804;28;19915;-58
2021/12/13 09:46:21;;;;;;;3.28;1.75;;;;;;;8.17;100.00;101710.78;5066586;28;20865;-58
2021/12/13 09:48:53;;;;;;;3.45;1.80;;;;;;;8.16;100.00;101711.69;5066983;28;20101;-57
2021/12/13 09:51:31;;;;;;;4.15;2.20;;;;;;;8.15;100.00;101704.72;5067043;28;20030;-58
2021/12/13 09:54:00;;;;;;;2.90;1.42;;;;;;;8.16;100.00;101711.69;5066547;28;20832;-58
2021/12/13 09:56:30;;;;;;;2.35;1.45;;;;;;;8.11;100.00;101710.06;5066979;28;20024;-57
2021/12/13 09:59:05;;;;;;;4.00;2.10;;;;;;;8.13;100.00;101716.97;5066351;28;20024;-57
2021/12/13 10:01:34;;;;;;;3.28;1.83;;;;;;;8.13;100.00;101721.34;5068704;28;20416;-57
2021/12/13 10:04:05;;;;;;;3.10;1.67;;;;;;;8.12;100.00;101720.47;5070171;28;20037;-57
2021/12/13 10:06:38;;;;;;;2.25;1.30;;;;;;;8.13;100.00;101723.97;5071629;28;20043;-57
2021/12/13 10:09:06;;;;;;;3.17;1.73;;;;;;;8.16;100.00;101721.28;5071210;28;20034;-57
2021/12/13 10:11:32;;;;;;;3.60;1.90;;;;;;;8.19;100.00;101721.22;5070892;28;20030;-57
2021/12/13 10:13:58;;;;;;;2.90;1.40;;;;;;;8.18;100.00;101722.97;5066765;28;20035;-57
2021/12/13 10:16:31;;;;;;;2.65;1.40;;;;;;;8.18;100.00;101716.88;5058128;28;20027;-57
2021/12/13 10:18:57;;;;;;;3.85;1.80;;;;;;;7.79;100.00;101646.97;5062684;28;20062;-57
2021/12/13 10:21:31;;;;;;;2.50;1.38;;;;;;;8.17;100.00;101713.41;5064075;28;20259;-57
2021/12/13 10:24:01;;;;;;;3.40;2.15;;;;;;;8.15;100.00;101704.72;5061911;28;20027;-57
2021/12/13 10:26:30;;;;;;;2.53;1.23;;;;;;;8.15;100.00;101712.56;5065756;28;20107;-57
2021/12/13 10:28:59;;;;;;;6.15;1.73;;;;;;;8.07;100.00;101697.91;5065318;28;20948;-57
2021/12/13 10:31:32;;;;;;;6.97;1.77;;;;;;;8.20;100.00;101723.81;5054291;28;20180;-57
2021/12/13 10:33:59;;;;;;;2.47;1.38;;;;;;;8.23;100.00;101710.66;5052798;28;20032;-57
2021/12/13 10:36:28;;;;;;;2.42;1.48;;;;;;;7.95;100.00;101658.88;5053271;28;20077;-57
2021/12/13 10:38:59;;;;;;;2.60;1.30;;;;;;;8.27;100.00;101713.22;5062224;28;20209;-57
2021/12/13 10:41:33;;;;;;;2.90;1.40;;;;;;;8.28;100.00;101717.56;5058833;28;20381;-57
2021/12/13 10:44:05;;;;;;;1.83;1.00;;;;;;;8.04;100.00;101675.25;5053815;28;20028;-57
2021/12/13 10:46:38;;;;;;;5.88;1.33;;;;;;;8.28;100.00;101725.44;5051046;28;20278;-57
2021/12/13 10:49:16;;;;;;;3.03;1.45;;;;;;;8.29;100.00;101727.16;5055610;28;20024;-57
2021/12/13 10:51:45;;;;;;;2.28;1.15;;;;;;;8.28;100.00;101726.31;5057382;28;20139;-57
2021/12/13 10:54:14;;;;;;;2.95;1.63;;;;;;;8.30;100.00;101724.53;5052120;28;20064;-57
2021/12/13 10:57:01;;;;;;;3.88;1.33;;;;;;;8.30;100.00;101719.31;5062564;28;20047;-57
2021/12/13 10:59:29;;;;;;;8.82;1.20;;;;;;;8.31;100.00;101715.78;5061260;28;20028;-57
2021/12/13 11:02:03;;;;;;;3.58;1.30;;;;;;;8.27;100.00;101708.00;5060305;28;20023;-58
2021/12/13 11:04:34;;;;;;;4.15;1.35;;;;;;;8.35;100.00;101711.38;5049823;28;20055;-57
2021/12/13 11:07:01;;;;;;;4.43;1.63;;;;;;;8.37;100.00;101704.31;5054704;28;20035;-57
2021/12/13 11:09:27;;;;;;;2.92;1.45;;;;;;;8.38;100.00;101696.41;5071021;28;20024;-57
2021/12/13 11:12:10;;;;;;;7.57;1.10;;;;;;;8.46;100.00;101693.66;5069621;28;20028;-58
2021/12/13 11:14:39;;;;;;;2.05;1.20;;;;;;;8.53;100.00;101696.13;5072517;28;20044;-58
2021/12/13 11:17:09;;;;;;;3.15;1.58;;;;;;;8.57;100.00;101696.91;5084844;28;20023;-57
2021/12/13 11:19:38;;;;;;;2.25;1.10;;;;;;;8.60;100.00;101691.63;5072072;28;20035;-57
2021/12/13 11:22:12;;;;;;;2.50;1.52;;;;;;;8.59;100.00;101684.63;5070556;28;20050;-57
2021/12/13 11:24:40;;;;;;;4.13;2.00;;;;;;;8.57;100.00;101679.44;5059086;28;20135;-57
2021/12/13 11:27:10;;;;;;;2.95;1.90;;;;;;;8.71;100.00;101692.25;5069820;28;20459;-57
2021/12/13 11:29:38;;;;;;;1.70;1.00;;;;;;;8.72;100.00;101691.34;5068957;28;20453;-57
2021/12/13 11:32:28;;;;;;;2.40;1.30;;;;;;;8.73;100.00;101683.47;5069643;28;20023;-57
2021/12/13 11:35:20;;;;;;;2.90;1.30;;;;;;;8.75;100.00;101685.19;5073058;28;20089;-57
2021/12/13 11:38:10;;;;;;;5.60;2.20;;;;;;;8.76;100.00;101693.00;5041052;28;20042;-57
2021/12/13 11:40:57;;;;;;;4.97;1.98;;;;;;;8.71;100.00;101684.41;5068162;28;20031;-57
2021/12/13 11:43:41;;;;;;;2.72;1.35;;;;;;;8.78;100.00;101701.72;5068622;28;20038;-57
2021/12/13 11:46:29;;;;;;;2.90;1.63;;;;;;;8.76;100.00;101698.25;5071050;28;20024;-57
2021/12/13 11:49:32;;;;;;;2.42;1.40;;;;;;;8.75;100.00;101695.66;5069333;28;20031;-57
2021/12/13 11:52:11;;;;;;;11.20;2.05;;;;;;;8.73;100.00;101688.69;5069174;28;20185;-57
2021/12/13 11:54:59;;;;;;;4.25;1.58;;;;;;;8.73;100.00;101677.34;5070951;28;20067;-58
2021/12/13 11:57:28;;;;;;;2.33;1.33;;;;;;;8.76;100.00;101676.41;5039536;28;20036;-58
2021/12/13 12:00:22;;;;;;;3.35;1.83;;;;;;;8.78;100.00;101670.25;5078919;28;20025;-57
2021/12/13 12:03:34;;;;;;;2.08;1.25;;;;;;;8.82;100.00;101671.06;5069580;28;20131;-57